Pagrindinis puslapis
METAR-TAF:

METAR-TAF

Oro uostai :

Numėjos Magentos oro uostas

Numėja, Naujoji Kaledonija

platuma: 22-15-30S, ilguma: 166-28-22E, Aukštis: 3 m

METAR: trūkstamas

Laikas: 16:51 (05:51 UTC)

Prognozė

Ataskaita buvo paskelbta 12 valandos ir 51 minutes, ne 17:00 UTC
Prognozė galioja nuo 26 metu 18 UTC su 27 metu 18 UTC
Vėjas 15 kt iš Pietryčių
Matomumas 10 km arba daugiau
Mažai debesys ne aukštis 2000 ft
Su prošvaistėmis ne aukštis 6500 ft
Tapsmas
nuo 27 metu 07 UTC su 27 metu 09 UTC
Vėjas 2 kt nuo kintamojo kryptimis

TAF: NWWM 261700Z 2618/2718 13015KT 9999 FEW020 BKN065 BECMG 2707/2709 VRB02KT

Orai ataskaitas ir orų prognozės (METAR, TAF).

turimą stotys yra geltonos ir raudonos taškus žemėlapyje.

Perkelti pele per norėdami pamatyti stoties vardą.

Tada spustelėkite, norėdami matyti oro stebėjimo ir prognozės.

Norėdami pakeisti žemėlapį: spustelėkite ant žalios mygtukų su juodo kryžiaus žemyn,; žalią mygtuką su brūkšneliu, jei norite nutolinti; arba žalių rodyklių gretimoms žemėlapius.


METAR-TAF: